Yamato — JD2252 — position and weather

sailwx.info

Track history (hours):
 
Tides and Currents Weather Stations Pressure Air Temp Water Temp Dewpoint Dewpoint Depression Visibility Wind Speed Wind Dir Waves Ship Positions

Yamato

Last reported at 2014-Jul-31 00:33 UTC. Time now 2014-Jul-31 01:24 UTC.
Position N 35°28' E 139°47'.

Length 40 m; draft 3.6 m.

Type: Tug. MMSI: 431101141.

Date/timePositionNaut miles runAvg speedWind from/ knotsBaromVisibWave heightAir tempDewpointWater temp
2014-Jul-31 00:33N 35°28' E 139°47'1 0.9
2014-Jul-30 23:33N 35°28' E 139°45'0 0.1
2014-Jul-30 22:34N 35°28' E 139°45'0 0.0
2014-Jul-30 21:34N 35°28' E 139°45'5 5.0
2014-Jul-30 20:34N 35°27' E 139°39'1 0.1
2014-Jul-30 07:10N 35°27' E 139°39'2 4.1
2014-Jul-30 06:34N 35°27' E 139°42'1 0.6
2014-Jul-30 05:33N 35°27' E 139°41'0 0.3
2014-Jul-30 04:33N 35°27' E 139°41'0 0.3
2014-Jul-30 03:34N 35°27' E 139°41'1 0.7
2014-Jul-30 02:33N 35°26' E 139°41'1 1.3
2014-Jul-30 01:33N 35°27' E 139°42'0 0.0
2014-Jul-30 00:33N 35°27' E 139°42'0 0.0
2014-Jul-29 23:33N 35°27' E 139°42'0 0.4
2014-Jul-29 22:33N 35°27' E 139°42'2 2.1
2014-Jul-29 21:33N 35°27' E 139°39'1 0.1
2014-Jul-29 09:34N 35°27' E 139°39'6 6.4
2014-Jul-29 08:33N 35°30' E 139°46'2 2.4
2014-Jul-29 07:33N 35°28' E 139°44'0 0.0
2014-Jul-29 06:34N 35°28' E 139°44'2 1.7
2014-Jul-29 05:34N 35°29' E 139°43'1 0.9
2014-Jul-29 04:33N 35°30' E 139°44'3 2.8
2014-Jul-29 03:34N 35°28' E 139°41'2 2.2
2014-Jul-29 02:34N 35°27' E 139°39'0 0.0
2014-Jul-29 01:34N 35°27' E 139°39'0 0.0
2014-Jul-29 00:34N 35°27' E 139°39'0 0.0
2014-Jul-28 23:33N 35°27' E 139°39'0 0.0
2014-Jul-28 22:34N 35°27' E 139°39'0 0.0
2014-Jul-28 21:34N 35°27' E 139°39'0 0.0
2014-Jul-28 20:34N 35°27' E 139°39'0 0.0
2014-Jul-28 08:33N 35°27' E 139°39'0 0.1
2014-Jul-28 07:34N 35°27' E 139°39'2 2.4
2014-Jul-28 06:33N 35°28' E 139°41'2 2.4
2014-Jul-28 05:33N 35°27' E 139°39'0 0.0
2014-Jul-28 04:33N 35°27' E 139°39'0 0.0
2014-Jul-28 03:33N 35°27' E 139°39'0 0.0
2014-Jul-28 02:33N 35°27' E 139°39'0 0.0
2014-Jul-28 01:33N 35°27' E 139°39'0 0.0
2014-Jul-28 00:33N 35°27' E 139°39'4 4.2
2014-Jul-27 23:33N 35°29' E 139°43'1 1.4
2014-Jul-27 22:33N 35°30' E 139°45'4 3.9
2014-Jul-27 21:33N 35°27' E 139°42'2 2.1
2014-Jul-27 20:33N 35°27' E 139°40'0 0.0
2014-Jul-26 00:32N 35°27' E 139°40'1 1.0
2014-Jul-25 23:34N 35°28' E 139°39'2 2.1
2014-Jul-25 22:33N 35°27' E 139°41'1 0.7
2014-Jul-25 21:33N 35°27' E 139°42'1 1.4
2014-Jul-25 20:34N 35°27' E 139°40'2 1.5
2014-Jul-25 19:34N 35°27' E 139°39'0 0.0
2014-Jul-25 14:33N 35°27' E 139°39'2 2.2
2014-Jul-25 13:33N 35°27' E 139°41'2 2.2
2014-Jul-25 12:33N 35°27' E 139°39'0 0.0
2014-Jul-25 11:33N 35°27' E 139°39'0 0.0
2014-Jul-25 10:33N 35°27' E 139°39'0 0.3
2014-Jul-25 09:33N 35°28' E 139°39'3 2.5
2014-Jul-25 08:33N 35°28' E 139°42'1 1.2
2014-Jul-25 07:33N 35°28' E 139°41'0 0.0
2014-Jul-25 06:33N 35°28' E 139°41'0 0.0
2014-Jul-25 05:33N 35°28' E 139°41'0 0.0
2014-Jul-25 04:33N 35°28' E 139°41'3 2.7
2014-Jul-25 03:33N 35°29' E 139°43'3 2.9
2014-Jul-25 02:33N 35°31' E 139°46'1 1.3
2014-Jul-25 01:33N 35°30' E 139°47'7 7.4
2014-Jul-25 00:33N 35°27' E 139°39'0 0.1
2014-Jul-24 23:33N 35°27' E 139°39'0 0.0
2014-Jul-24 22:33N 35°27' E 139°39'0 0.0
2014-Jul-24 21:33N 35°27' E 139°39'0 0.0
2014-Jul-23 23:12N 35°27' E 139°39'4 5.9
2014-Jul-23 22:33N 35°29' E 139°43'3 3.0
2014-Jul-23 21:33N 35°27' E 139°45'4 4.3
2014-Jul-23 20:34N 35°27' E 139°40'0 0.3
2014-Jul-23 19:33N 35°27' E 139°39'0 0.0
2014-Jul-23 18:33N 35°27' E 139°39'0 0.0
2014-Jul-23 17:33N 35°27' E 139°39'0 0.0
2014-Jul-23 16:33N 35°27' E 139°39'0 0.0
2014-Jul-23 15:33N 35°27' E 139°39'0 0.0
2014-Jul-23 14:33N 35°27' E 139°39'1 1.5
2014-Jul-23 13:33N 35°26' E 139°41'1 1.1
2014-Jul-23 12:33N 35°27' E 139°42'0 0.1
2014-Jul-23 11:33N 35°27' E 139°42'2 2.0
2014-Jul-23 10:33N 35°27' E 139°39'0 0.1
2014-Jul-23 09:33N 35°27' E 139°39'4 3.9
2014-Jul-23 08:33N 35°27' E 139°44'4 3.7
2014-Jul-23 07:34N 35°27' E 139°40'0 0.3
2014-Jul-23 06:33N 35°27' E 139°40'1 0.7
2014-Jul-23 05:33N 35°27' E 139°40'1 0.7
2014-Jul-23 04:33N 35°27' E 139°40'0 0.0
2014-Jul-23 03:33N 35°27' E 139°40'0 0.0
2014-Jul-23 02:33N 35°27' E 139°40'0 0.0
2014-Jul-23 01:33N 35°27' E 139°40'0 0.0
2014-Jul-23 00:33N 35°27' E 139°40'4 4.4
2014-Jul-22 23:33N 35°29' E 139°44'1 0.9
2014-Jul-22 22:33N 35°28' E 139°45'2 2.5
2014-Jul-22 21:33N 35°27' E 139°42'2 0.2
2014-Jul-22 07:11N 35°27' E 139°40'0 0.0
2014-Jul-22 06:33N 35°27' E 139°40'0 0.0
2014-Jul-22 05:33N 35°27' E 139°40'0 0.2
2014-Jul-22 04:34N 35°27' E 139°40'7 6.6
2014-Jul-22 03:34N 35°31' E 139°47'6 6.4
2014-Jul-22 02:33N 35°27' E 139°40'0 0.3
2014-Jul-22 01:33N 35°27' E 139°40'0 0.0
2014-Jul-22 00:33N 35°27' E 139°40'0 0.0
2014-Jul-21 23:33N 35°27' E 139°40'2 2.2
2014-Jul-21 22:33N 35°28' E 139°42'2 1.9
2014-Jul-21 21:33N 35°27' E 139°43'3 2.8
2014-Jul-21 20:34N 35°27' E 139°40'0 0.0
2014-Jul-21 20:18N 35°27' E 139°40'1 0.1
2014-Jul-21 06:33N 35°28' E 139°40'0 0.4
2014-Jul-21 05:33N 35°28' E 139°41'0 0.0
2014-Jul-21 04:33N 35°28' E 139°41'0 0.0
2014-Jul-21 03:33N 35°28' E 139°41'0 0.0
2014-Jul-21 02:33N 35°28' E 139°41'0 0.0
2014-Jul-21 01:33N 35°28' E 139°41'1 1.1
2014-Jul-21 00:33N 35°26' E 139°41'  
Track history (hours):
 
Tides and Currents Weather Stations Pressure Air Temp Water Temp Dewpoint Dewpoint Depression Visibility Wind Speed Wind Dir Waves Ship Positions

Yamato

Last reported at 2014-Jul-31 00:33 UTC. Time now 2014-Jul-31 01:24 UTC.
Position N 35°28' E 139°47'.

Length 40 m; draft 3.6 m.

Type: Tug. MMSI: 431101141.

Date/timePositionNaut miles runAvg speedWind from/ knotsBaromVisibWave heightAir tempDewpointWater temp
2014-Jul-31 00:33N 35°28' E 139°47'1 0.9
2014-Jul-30 23:33N 35°28' E 139°45'0 0.1
2014-Jul-30 22:34N 35°28' E 139°45'0 0.0
2014-Jul-30 21:34N 35°28' E 139°45'5 5.0
2014-Jul-30 20:34N 35°27' E 139°39'1 0.1
2014-Jul-30 07:10N 35°27' E 139°39'2 4.1
2014-Jul-30 06:34N 35°27' E 139°42'1 0.6
2014-Jul-30 05:33N 35°27' E 139°41'0 0.3
2014-Jul-30 04:33N 35°27' E 139°41'0 0.3
2014-Jul-30 03:34N 35°27' E 139°41'1 0.7
2014-Jul-30 02:33N 35°26' E 139°41'1 1.3
2014-Jul-30 01:33N 35°27' E 139°42'0 0.0
2014-Jul-30 00:33N 35°27' E 139°42'0 0.0
2014-Jul-29 23:33N 35°27' E 139°42'0 0.4
2014-Jul-29 22:33N 35°27' E 139°42'2 2.1
2014-Jul-29 21:33N 35°27' E 139°39'1 0.1
2014-Jul-29 09:34N 35°27' E 139°39'6 6.4
2014-Jul-29 08:33N 35°30' E 139°46'2 2.4
2014-Jul-29 07:33N 35°28' E 139°44'0 0.0
2014-Jul-29 06:34N 35°28' E 139°44'2 1.7
2014-Jul-29 05:34N 35°29' E 139°43'1 0.9
2014-Jul-29 04:33N 35°30' E 139°44'3 2.8
2014-Jul-29 03:34N 35°28' E 139°41'2 2.2
2014-Jul-29 02:34N 35°27' E 139°39'0 0.0
2014-Jul-29 01:34N 35°27' E 139°39'0 0.0
2014-Jul-29 00:34N 35°27' E 139°39'0 0.0
2014-Jul-28 23:33N 35°27' E 139°39'0 0.0
2014-Jul-28 22:34N 35°27' E 139°39'0 0.0
2014-Jul-28 21:34N 35°27' E 139°39'0 0.0
2014-Jul-28 20:34N 35°27' E 139°39'0 0.0
2014-Jul-28 08:33N 35°27' E 139°39'0 0.1
2014-Jul-28 07:34N 35°27' E 139°39'2 2.4
2014-Jul-28 06:33N 35°28' E 139°41'2 2.4
2014-Jul-28 05:33N 35°27' E 139°39'0 0.0
2014-Jul-28 04:33N 35°27' E 139°39'0 0.0
2014-Jul-28 03:33N 35°27' E 139°39'0 0.0
2014-Jul-28 02:33N 35°27' E 139°39'0 0.0
2014-Jul-28 01:33N 35°27' E 139°39'0 0.0
2014-Jul-28 00:33N 35°27' E 139°39'4 4.2
2014-Jul-27 23:33N 35°29' E 139°43'1 1.4
2014-Jul-27 22:33N 35°30' E 139°45'4 3.9
2014-Jul-27 21:33N 35°27' E 139°42'2 2.1
2014-Jul-27 20:33N 35°27' E 139°40'0 0.0
2014-Jul-26 00:32N 35°27' E 139°40'1 1.0
2014-Jul-25 23:34N 35°28' E 139°39'2 2.1
2014-Jul-25 22:33N 35°27' E 139°41'1 0.7
2014-Jul-25 21:33N 35°27' E 139°42'1 1.4
2014-Jul-25 20:34N 35°27' E 139°40'2 1.5
2014-Jul-25 19:34N 35°27' E 139°39'0 0.0
2014-Jul-25 14:33N 35°27' E 139°39'2 2.2
2014-Jul-25 13:33N 35°27' E 139°41'2 2.2
2014-Jul-25 12:33N 35°27' E 139°39'0 0.0
2014-Jul-25 11:33N 35°27' E 139°39'0 0.0
2014-Jul-25 10:33N 35°27' E 139°39'0 0.3
2014-Jul-25 09:33N 35°28' E 139°39'3 2.5
2014-Jul-25 08:33N 35°28' E 139°42'1 1.2
2014-Jul-25 07:33N 35°28' E 139°41'0 0.0
2014-Jul-25 06:33N 35°28' E 139°41'0 0.0
2014-Jul-25 05:33N 35°28' E 139°41'0 0.0
2014-Jul-25 04:33N 35°28' E 139°41'3 2.7
2014-Jul-25 03:33N 35°29' E 139°43'3 2.9
2014-Jul-25 02:33N 35°31' E 139°46'1 1.3
2014-Jul-25 01:33N 35°30' E 139°47'7 7.4
2014-Jul-25 00:33N 35°27' E 139°39'0 0.1
2014-Jul-24 23:33N 35°27' E 139°39'0 0.0
2014-Jul-24 22:33N 35°27' E 139°39'0 0.0
2014-Jul-24 21:33N 35°27' E 139°39'0 0.0
2014-Jul-23 23:12N 35°27' E 139°39'4 5.9
2014-Jul-23 22:33N 35°29' E 139°43'3 3.0
2014-Jul-23 21:33N 35°27' E 139°45'4 4.3
2014-Jul-23 20:34N 35°27' E 139°40'0 0.3
2014-Jul-23 19:33N 35°27' E 139°39'0 0.0
2014-Jul-23 18:33N 35°27' E 139°39'0 0.0
2014-Jul-23 17:33N 35°27' E 139°39'0 0.0
2014-Jul-23 16:33N 35°27' E 139°39'0 0.0
2014-Jul-23 15:33N 35°27' E 139°39'0 0.0
2014-Jul-23 14:33N 35°27' E 139°39'1 1.5
2014-Jul-23 13:33N 35°26' E 139°41'1 1.1
2014-Jul-23 12:33N 35°27' E 139°42'0 0.1
2014-Jul-23 11:33N 35°27' E 139°42'2 2.0
2014-Jul-23 10:33N 35°27' E 139°39'0 0.1
2014-Jul-23 09:33N 35°27' E 139°39'4 3.9
2014-Jul-23 08:33N 35°27' E 139°44'4 3.7
2014-Jul-23 07:34N 35°27' E 139°40'0 0.3
2014-Jul-23 06:33N 35°27' E 139°40'1 0.7
2014-Jul-23 05:33N 35°27' E 139°40'1 0.7
2014-Jul-23 04:33N 35°27' E 139°40'0 0.0
2014-Jul-23 03:33N 35°27' E 139°40'0 0.0
2014-Jul-23 02:33N 35°27' E 139°40'0 0.0
2014-Jul-23 01:33N 35°27' E 139°40'0 0.0
2014-Jul-23 00:33N 35°27' E 139°40'4 4.4
2014-Jul-22 23:33N 35°29' E 139°44'1 0.9
2014-Jul-22 22:33N 35°28' E 139°45'2 2.5
2014-Jul-22 21:33N 35°27' E 139°42'2 0.2
2014-Jul-22 07:11N 35°27' E 139°40'0 0.0
2014-Jul-22 06:33N 35°27' E 139°40'0 0.0
2014-Jul-22 05:33N 35°27' E 139°40'0 0.2
2014-Jul-22 04:34N 35°27' E 139°40'7 6.6
2014-Jul-22 03:34N 35°31' E 139°47'6 6.4
2014-Jul-22 02:33N 35°27' E 139°40'0 0.3
2014-Jul-22 01:33N 35°27' E 139°40'0 0.0
2014-Jul-22 00:33N 35°27' E 139°40'0 0.0
2014-Jul-21 23:33N 35°27' E 139°40'2 2.2
2014-Jul-21 22:33N 35°28' E 139°42'2 1.9
2014-Jul-21 21:33N 35°27' E 139°43'3 2.8
2014-Jul-21 20:34N 35°27' E 139°40'0 0.0
2014-Jul-21 20:18N 35°27' E 139°40'1 0.1
2014-Jul-21 06:33N 35°28' E 139°40'0 0.4
2014-Jul-21 05:33N 35°28' E 139°41'0 0.0
2014-Jul-21 04:33N 35°28' E 139°41'0 0.0
2014-Jul-21 03:33N 35°28' E 139°41'0 0.0
2014-Jul-21 02:33N 35°28' E 139°41'0 0.0
2014-Jul-21 01:33N 35°28' E 139°41'1 1.1
2014-Jul-21 00:33N 35°26' E 139°41'  

Dump ship's entire track history